PDT,Max TemperatureF,Mean TemperatureF,Min TemperatureF,Max Dew PointF,MeanDew PointF,Min DewpointF,Max Humidity, Mean Humidity, Min Humidity, Max Sea Level PressureIn, Mean Sea Level PressureIn, Min Sea Level PressureIn, Max VisibilityMiles, Mean VisibilityMiles, Min VisibilityMiles, Max Wind SpeedMPH, Mean Wind SpeedMPH, Max Gust SpeedMPH,PrecipitationIn, CloudCover, Events, WindDirDegrees
2011-9-1,102,82,63,59,27,18,34,15,5,29.80,29.73,29.67,10,10,10,15,6,22,0.00,0,,200
2011-9-2,100,80,59,39,30,24,32,17,7,29.89,29.82,29.77,10,10,10,14,5,23,0.00,0,,196
2011-9-3,102,83,64,40,32,13,36,18,4,29.87,29.81,29.75,10,10,10,14,6,21,0.00,0,,212
2011-9-4,102,82,63,39,31,19,26,16,6,29.87,29.81,29.75,10,10,10,18,7,28,0.00,0,,196
2011-9-5,100,88,78,45,33,23,29,16,7,29.88,29.82,29.75,10,10,10,12,6,21,0.00,0,,168
2011-9-6,99,80,62,47,39,33,40,23,11,29.98,29.92,29.88,10,10,10,9,4,20,0.00,0,,167
2011-9-7,102,83,66,42,39,36,36,21,12,30.02,29.95,29.89,10,10,10,9,4,,0.00,1,,225
2011-9-8,102,85,68,44,38,31,35,21,8,29.97,29.88,29.78,10,10,10,14,6,22,0.00,1,,202
2011-9-9,100,83,66,39,36,33,34,20,9,29.86,29.78,29.70,10,10,10,21,8,26,0.00,3,,273
2011-9-10,90,80,71,54,45,38,55,29,22,29.90,29.81,29.73,10,10,9,31,7,41,0.11,3,Rain,101
2011-9-11,89,76,63,58,51,45,81,46,23,30.03,29.92,29.87,10,10,10,12,5,17,0.00,1,,183
2011-9-12,91,76,61,49,41,25,60,31,11,30.06,29.99,29.94,10,10,10,9,4,,0.00,1,,242
2011-9-13,89,74,59,54,43,32,55,34,21,30.06,30.00,29.94,10,10,10,18,5,25,0.00,4,,183
2011-9-14,90,74,61,52,48,44,62,41,25,29.95,29.88,29.81,10,10,10,21,4,28,0.00,3,,199
2011-9-15,93,76,60,50,46,42,60,35,17,29.88,29.81,29.73,10,10,10,17,4,25,0.00,1,,204
2011-9-16,93,80,70,48,42,26,46,28,11,29.82,29.77,29.72,10,10,10,21,12,30,0.00,0,,201
2011-9-17,91,72,55,44,39,35,49,29,14,29.96,29.89,29.79,10,10,10,13,6,,0.00,0,,173
2011-9-18,96,76,57,43,38,33,50,28,11,30.08,30.01,29.95,10,10,10,10,4,,0.00,0,,192
2011-9-19,98,78,59,43,36,32,42,24,10,30.04,29.95,29.86,10,10,10,10,3,,0.00,0,,186
2011-9-20,100,80,62,41,37,31,41,23,9,29.94,29.87,29.80,10,10,10,8,5,,0.00,0,,186
2011-9-21,100,80,60,41,35,28,40,22,9,29.89,29.85,29.80,10,10,10,14,5,18,0.00,1,,183
2011-9-22,100,80,62,36,31,25,38,18,8,29.99,29.93,29.87,10,10,10,12,4,18,0.00,1,,176
2011-9-23,102,82,63,37,31,26,29,16,8,30.03,29.95,29.87,10,10,10,17,4,25,0.00,1,,203
2011-9-24,96,80,66,46,39,34,37,23,15,29.91,29.84,29.76,10,10,10,15,6,22,0.00,0,,199
2011-9-25,93,76,60,44,42,36,49,31,13,29.86,29.79,29.72,10,10,10,14,5,21,0.00,0,,200
2011-9-26,93,74,55,45,40,36,55,31,14,29.92,29.87,29.78,10,10,10,9,3,,0.00,0,,171
2011-9-27,96,76,57,42,34,26,51,25,9,30.01,29.95,29.90,10,10,10,10,5,,0.00,1,,162
2011-9-28,99,76,55,34,30,26,32,19,10,30.03,29.95,29.88,10,10,10,8,5,,0.00,2,,208
2011-9-29,100,80,60,43,34,31,35,20,9,29.95,29.89,29.82,10,10,10,14,6,16,0.00,0,,158
2011-9-30,97,80,64,45,41,33,40,26,13,29.95,29.90,29.81,10,10,10,14,6,20,0.00,1,,180